KILG/ILG METAR and TAF weather

Enter ICAO airport designator
Station Type Date Time Source
KILG METAR 2020/07/02 21:51 UTC NOAA

KILG 022151Z 34010G18KT 10SM FEW070 33/16 A2981 RMK AO2 SLP093 T03330161


Station Type Date Time Source
KILG Decoded METAR 2020/07/02 21:51 UTC NOAA

WILMINGTON NEW CASTLE CO, DE, United States (KILG) 39-40N 075-36W 28M
Jul 02, 2020 - 05:51 PM EDT / 2020.07.02 2151 UTC
Wind: from the NNW (340 degrees) at 12 MPH (10 KT) gusting to 21 MPH (18 KT):0
Visibility: 10 mile(s):0
Sky conditions: mostly clear
Temperature: 91.9 F (33.3 C)
Dew Point: 61.0 F (16.1 C)
Relative Humidity: 35%
Pressure (altimeter): 29.81 in. Hg (1009 hPa)
ob: KILG 022151Z 34010G18KT 10SM FEW070 33/16 A2981 RMK AO2 SLP093 T03330161
cycle: 22

Station Type Date Time Source
KILG TAF 2020/07/02 21:45 UTC NOAA

TAF
AMD KILG 022043Z 0221/0318 34012KT P6SM VCSH FEW060
FM030100 29005KT P6SM SCT200
FM031100 32005KT P6SM FEW100

Example: see airport list